createdAt,value
2023-02-14T00:00:06.673Z,97621.94
2023-02-14T00:02:11.327Z,97546.16
2023-02-14T00:04:14.288Z,97553.47
2023-02-14T00:06:18.692Z,97558.03
2023-02-14T00:08:21.504Z,97636.09
2023-02-14T00:10:24.326Z,97618.41
2023-02-14T00:12:27.055Z,97601.56
2023-02-14T00:14:47.661Z,97610.88
2023-02-14T00:16:50.641Z,97606.03
2023-02-14T00:19:05.192Z,97594.22
2023-02-14T00:21:07.936Z,97477.38
2023-02-14T00:23:12.076Z,97596.88
2023-02-14T00:25:15.067Z,97590.97
2023-02-14T00:27:18.075Z,97587.94
2023-02-14T00:29:23.515Z,97580.69
2023-02-14T00:31:26.767Z,97524.09
2023-02-14T00:33:29.570Z,97543.78
2023-02-14T00:35:32.316Z,97582.59
2023-02-14T00:37:35.461Z,97583.72
2023-02-14T00:39:39.712Z,97577.44
2023-02-14T00:41:43.802Z,97588.88
2023-02-14T00:43:47.851Z,97568.06
2023-02-14T00:45:50.715Z,97542.13
2023-02-14T00:47:53.521Z,97583.88
2023-02-14T00:49:56.379Z,97589.31
2023-02-14T00:52:01.608Z,97589.16
2023-02-14T00:54:06.969Z,97588.34
2023-02-14T00:56:11.057Z,97573.44
2023-02-14T00:58:14.095Z,97510.25
2023-02-14T01:00:17.455Z,97579.38
2023-02-14T01:02:20.239Z,97574.91
2023-02-14T01:04:23.037Z,97626.44
2023-02-14T01:06:25.826Z,97580.81
2023-02-14T01:08:28.825Z,97584.44
2023-02-14T01:10:32.330Z,97584.44
2023-02-14T01:12:36.450Z,97519.06
2023-02-14T01:14:39.333Z,97588.06
2023-02-14T01:16:42.166Z,97577.63
2023-02-14T01:18:45.480Z,97470.81
2023-02-14T01:20:48.362Z,97578.88
2023-02-14T01:22:51.498Z,97585.84
2023-02-14T01:24:56.786Z,97583.34
2023-02-14T01:26:59.643Z,97552.66
2023-02-14T01:29:04.558Z,97578.88
2023-02-14T01:31:09.700Z,97578.06
2023-02-14T01:33:12.547Z,97560.44
2023-02-14T01:35:15.446Z,97572.47
2023-02-14T01:37:18.202Z,97570.50
2023-02-14T01:39:20.946Z,97575.13
2023-02-14T01:41:24.983Z,97580.84
2023-02-14T01:43:29.480Z,97583.09
2023-02-14T01:45:33.879Z,97535.31
2023-02-14T01:47:41.753Z,97557.84
2023-02-14T01:49:49.917Z,97490.16
2023-02-14T01:51:57.263Z,97572.44
2023-02-14T01:54:01.259Z,97581.78
2023-02-14T01:56:10.352Z,97578.19
2023-02-14T01:58:17.315Z,97578.19
2023-02-14T02:00:38.727Z,97553.06
2023-02-14T02:02:44.227Z,97583.47
2023-02-14T02:04:48.274Z,97551.69
2023-02-14T02:06:56.084Z,97552.50
2023-02-14T02:09:10.060Z,97581.00
2023-02-14T02:11:13.554Z,97552.69
2023-02-14T02:13:19.867Z,97579.63
2023-02-14T02:15:28.059Z,97588.53
2023-02-14T02:17:41.144Z,97574.34
2023-02-14T02:20:15.742Z,97571.28
2023-02-14T02:22:51.256Z,97579.78
2023-02-14T02:25:01.474Z,97575.19
2023-02-14T02:27:29.728Z,97572.84
2023-02-14T02:30:05.337Z,97565.78
2023-02-14T02:32:38.627Z,97566.88
2023-02-14T02:35:11.212Z,97567.19
2023-02-14T02:37:31.691Z,97569.16
2023-02-14T02:39:47.477Z,97426.75
2023-02-14T02:42:02.634Z,97565.81
2023-02-14T02:44:16.377Z,97572.22
2023-02-14T02:46:43.895Z,97562.63
2023-02-14T02:48:54.145Z,97488.91
2023-02-14T02:51:19.780Z,97572.91
2023-02-14T02:53:29.398Z,97569.84
2023-02-14T02:55:53.951Z,97560.69
2023-02-14T02:57:57.879Z,97528.06
2023-02-14T03:00:04.409Z,97571.78
2023-02-14T03:02:13.652Z,97567.34
2023-02-14T03:04:36.974Z,97564.56
2023-02-14T03:06:41.160Z,97550.69
2023-02-14T03:08:43.974Z,97576.09
2023-02-14T03:10:46.913Z,97546.94
2023-02-14T03:13:26.497Z,97566.94
2023-02-14T03:15:42.005Z,97570.84
2023-02-14T03:17:58.781Z,97565.84
2023-02-14T03:20:14.303Z,97559.44
2023-02-14T03:22:27.435Z,97410.09
2023-02-14T03:24:40.979Z,97558.63
2023-02-14T03:26:49.398Z,97570.28
2023-02-14T03:29:01.194Z,97565.84
2023-02-14T03:31:09.685Z,97565.56
2023-02-14T03:33:19.845Z,97536.94
2023-02-14T03:35:26.714Z,97567.50
2023-02-14T03:37:37.066Z,97569.72
2023-02-14T03:39:44.892Z,97568.75
2023-02-14T03:41:52.864Z,97548.03
2023-02-14T03:44:01.007Z,97559.84
2023-02-14T03:46:09.600Z,97528.34
2023-02-14T03:48:15.386Z,97562.22
2023-02-14T03:50:20.691Z,97567.22
2023-02-14T03:52:26.063Z,97556.53
2023-02-14T03:54:32.813Z,97550.81
2023-02-14T03:56:38.835Z,97551.66
2023-02-14T03:58:46.055Z,97559.16
2023-02-14T04:00:54.045Z,97546.41
2023-02-14T04:03:03.143Z,97552.78
2023-02-14T04:05:13.409Z,97447.28
2023-02-14T04:07:18.511Z,97551.41
2023-02-14T04:09:21.373Z,97528.75
2023-02-14T04:11:25.628Z,97551.94
2023-02-14T04:13:28.758Z,97559.84
2023-02-14T04:15:31.688Z,97477.13
2023-02-14T04:17:51.834Z,97546.66
2023-02-14T04:19:54.716Z,97536.53
2023-02-14T04:21:57.556Z,97510.69
2023-02-14T04:24:00.356Z,97544.31
2023-02-14T04:26:03.696Z,97545.28
2023-02-14T04:28:07.921Z,97541.66
2023-02-14T04:30:12.580Z,97441.19
2023-02-14T04:32:17.611Z,97542.78
2023-02-14T04:34:20.471Z,97536.38
2023-02-14T04:36:23.262Z,97456.03
2023-02-14T04:38:26.262Z,97564.03
2023-02-14T04:40:29.077Z,97561.81
2023-02-14T04:42:31.896Z,97552.91
2023-02-14T04:44:38.165Z,97531.41
2023-02-14T04:46:41.030Z,97556.94
2023-02-14T04:48:43.824Z,97564.59
2023-02-14T04:50:46.598Z,97513.06
2023-02-14T04:52:49.368Z,97528.63
2023-02-14T04:54:52.160Z,97554.31
2023-02-14T04:56:55.307Z,97554.16
2023-02-14T04:58:58.161Z,97545.84
2023-02-14T05:01:02.828Z,97553.19
2023-02-14T05:03:05.795Z,97546.94
2023-02-14T05:05:09.105Z,97531.94
2023-02-14T05:07:11.875Z,97541.66
2023-02-14T05:09:14.701Z,97540.00
2023-02-14T05:11:17.507Z,97552.50
2023-02-14T05:13:20.305Z,97445.34
2023-02-14T05:15:23.342Z,97535.69
2023-02-14T05:17:27.555Z,97537.78
2023-02-14T05:19:30.320Z,97546.09
2023-02-14T05:21:33.377Z,97538.88
2023-02-14T05:23:36.066Z,97530.25
2023-02-14T05:25:38.770Z,97519.16
2023-02-14T05:27:41.564Z,97535.94
2023-02-14T05:29:44.291Z,97536.09
2023-02-14T05:31:47.031Z,97537.75
2023-02-14T05:33:51.118Z,97535.25
2023-02-14T05:35:54.193Z,97535.25
2023-02-14T05:37:56.955Z,97535.53
2023-02-14T05:39:59.700Z,97523.88
2023-02-14T05:42:03.166Z,97539.97
2023-02-14T05:44:05.874Z,97547.75
2023-02-14T05:46:08.741Z,97549.00
2023-02-14T05:48:13.328Z,97555.38
2023-02-14T05:50:17.765Z,97547.88
2023-02-14T05:52:20.444Z,97552.88
2023-02-14T05:54:23.216Z,97552.72
2023-02-14T05:56:25.999Z,97554.00
2023-02-14T05:58:28.974Z,97554.97
2023-02-14T06:00:31.757Z,97508.47
2023-02-14T06:02:34.535Z,97564.16
2023-02-14T06:04:37.408Z,97554.16
2023-02-14T06:06:41.568Z,97557.78
2023-02-14T06:08:44.340Z,97568.75
2023-02-14T06:10:47.339Z,97558.34
2023-02-14T06:12:51.548Z,97549.88
2023-02-14T06:14:54.369Z,97556.66
2023-02-14T06:16:57.196Z,97465.19
2023-02-14T06:19:00.002Z,97565.28
2023-02-14T06:21:02.983Z,97559.16
2023-02-14T06:23:07.131Z,97555.84
2023-02-14T06:25:09.914Z,97560.97
2023-02-14T06:27:12.624Z,97561.81
2023-02-14T06:29:17.584Z,97557.22
2023-02-14T06:31:20.406Z,97557.38
2023-02-14T06:33:23.213Z,97560.00
2023-02-14T06:35:25.969Z,97567.09
2023-02-14T06:37:28.657Z,97571.38
2023-02-14T06:39:32.703Z,97573.47
2023-02-14T06:41:35.413Z,97572.63
2023-02-14T06:43:38.911Z,97577.78
2023-02-14T06:45:43.666Z,97573.59
2023-02-14T06:47:46.549Z,97503.00
2023-02-14T06:49:49.261Z,97573.53
2023-02-14T06:51:51.921Z,97528.50
2023-02-14T06:53:54.588Z,97569.41
2023-02-14T06:55:58.571Z,97580.13
2023-02-14T06:58:01.232Z,97582.19
2023-02-14T07:00:04.806Z,97579.72
2023-02-14T07:02:07.602Z,97575.53
2023-02-14T07:04:10.465Z,97547.63
2023-02-14T07:06:13.170Z,97569.44
2023-02-14T07:08:16.039Z,97571.09
2023-02-14T07:10:19.105Z,97511.69
2023-02-14T07:12:23.216Z,97568.06
2023-02-14T07:14:26.051Z,97575.97
2023-02-14T07:16:28.773Z,97571.94
2023-02-14T07:18:31.585Z,97573.31
2023-02-14T07:20:34.357Z,97562.72
2023-02-14T07:22:37.750Z,97543.56
2023-02-14T07:24:40.502Z,97565.72
2023-02-14T07:26:43.293Z,97577.09
2023-02-14T07:28:49.101Z,97490.63
2023-02-14T07:30:51.991Z,97568.41
2023-02-14T07:32:54.870Z,97565.19
2023-02-14T07:34:57.619Z,97573.50
2023-02-14T07:37:00.551Z,97573.66
2023-02-14T07:39:03.329Z,97573.75
2023-02-14T07:41:06.640Z,97564.53
2023-02-14T07:43:09.455Z,97563.28
2023-02-14T07:45:21.584Z,97554.34
2023-02-14T07:47:25.670Z,97560.41
2023-02-14T07:49:29.535Z,97556.78
2023-02-14T07:51:32.321Z,97563.44
2023-02-14T07:53:35.284Z,97559.81
2023-02-14T07:55:38.041Z,97560.50
2023-02-14T07:57:40.811Z,97552.50
2023-02-14T07:59:43.534Z,97559.41
2023-02-14T08:01:47.749Z,97554.88
2023-02-14T08:03:51.327Z,97547.69
2023-02-14T08:05:57.884Z,97556.38
2023-02-14T08:08:00.617Z,97544.88
2023-02-14T08:10:03.375Z,97553.41
2023-02-14T08:12:24.112Z,97521.31
2023-02-14T08:14:26.855Z,97541.50
2023-02-14T08:16:29.632Z,97545.03
2023-02-14T08:18:37.365Z,97541.91
2023-02-14T08:20:40.154Z,97491.53
2023-02-14T08:22:42.938Z,97556.25
2023-02-14T08:24:45.657Z,97554.94
2023-02-14T08:26:48.439Z,97548.34
2023-02-14T08:28:51.299Z,97552.00
2023-02-14T08:30:54.630Z,97553.34
2023-02-14T08:32:57.410Z,97563.75
2023-02-14T08:35:01.565Z,97558.97
2023-02-14T08:37:04.528Z,97551.38
2023-02-14T08:39:07.507Z,97492.50
2023-02-14T08:41:10.300Z,97552.44
2023-02-14T08:43:13.124Z,97547.50
2023-02-14T08:45:15.988Z,97470.53
2023-02-14T08:47:18.722Z,97500.69
2023-02-14T08:49:21.468Z,97504.66
2023-02-14T08:51:26.262Z,97368.88
2023-02-14T08:53:29.009Z,97545.47
2023-02-14T08:55:31.852Z,97540.69
2023-02-14T08:57:34.585Z,97540.56
2023-02-14T08:59:37.327Z,97533.81
2023-02-14T09:01:40.069Z,97542.63
2023-02-14T09:03:43.468Z,97530.34
2023-02-14T09:05:46.253Z,97550.13
2023-02-14T09:07:50.470Z,97534.34
2023-02-14T09:09:53.265Z,97547.31
2023-02-14T09:11:57.246Z,97547.47
2023-02-14T09:14:00.041Z,97552.97
2023-02-14T09:16:04.914Z,97537.34
2023-02-14T09:18:07.729Z,97536.81
2023-02-14T09:20:12.876Z,97549.44
2023-02-14T09:22:15.686Z,97547.78
2023-02-14T09:24:19.762Z,97553.09
2023-02-14T09:26:22.543Z,97555.88
2023-02-14T09:28:25.289Z,97540.72
2023-02-14T09:30:28.169Z,97545.00
2023-02-14T09:32:31.561Z,97538.94
2023-02-14T09:34:35.954Z,97539.25
2023-02-14T09:36:38.756Z,97522.91
2023-02-14T09:38:41.551Z,97528.91
2023-02-14T09:40:46.038Z,97529.47
2023-02-14T09:43:04.012Z,97530.31
2023-02-14T09:45:12.484Z,97527.38
2023-02-14T09:47:23.263Z,97522.91
2023-02-14T09:49:33.724Z,97521.75
2023-02-14T09:51:38.806Z,97521.28
2023-02-14T09:53:46.231Z,97525.53
2023-02-14T09:55:55.810Z,97517.25
2023-02-14T09:58:10.673Z,97507.34
2023-02-14T10:00:23.939Z,97515.53
2023-02-14T10:02:40.246Z,97515.53
2023-02-14T10:04:56.030Z,97513.41
2023-02-14T10:07:08.727Z,97512.19
2023-02-14T10:09:23.469Z,97502.06
2023-02-14T10:11:29.387Z,97502.13
2023-02-14T10:13:39.114Z,97505.31
2023-02-14T10:15:45.912Z,97508.22
2023-02-14T10:17:54.941Z,97504.97
2023-02-14T10:20:00.908Z,97504.66
2023-02-14T10:22:09.115Z,97502.38
2023-02-14T10:24:17.203Z,97393.50
2023-02-14T10:26:25.740Z,97457.31
2023-02-14T10:28:35.246Z,97498.25
2023-02-14T10:30:40.293Z,97398.31
2023-02-14T10:32:48.801Z,97492.09
2023-02-14T10:34:52.727Z,97498.84
2023-02-14T10:37:09.713Z,97496.63
2023-02-14T10:39:27.993Z,97501.38
2023-02-14T10:41:41.113Z,97497.41
2023-02-14T10:43:54.486Z,97495.22
2023-02-14T10:46:05.064Z,97492.97
2023-02-14T10:48:19.031Z,97484.13
2023-02-14T10:50:28.632Z,97476.09
2023-02-14T10:52:40.501Z,97482.13
2023-02-14T10:54:51.631Z,97472.06
2023-02-14T10:56:59.688Z,97468.16
2023-02-14T10:59:15.051Z,97457.88
2023-02-14T11:01:19.444Z,97458.09
2023-02-14T11:03:23.015Z,97457.03
2023-02-14T11:05:29.597Z,97455.19
2023-02-14T11:07:32.316Z,97462.22
2023-02-14T11:09:35.046Z,97453.50
2023-02-14T11:11:42.348Z,97459.47
2023-02-14T11:13:46.149Z,97459.25
2023-02-14T11:15:51.751Z,97458.00
2023-02-14T11:18:17.822Z,97447.66
2023-02-14T11:20:27.853Z,97443.75
2023-02-14T11:22:31.748Z,97440.38
2023-02-14T11:24:36.862Z,97439.72
2023-02-14T11:26:39.958Z,97437.63
2023-02-14T11:28:53.923Z,97443.22
2023-02-14T11:30:58.304Z,97436.34
2023-02-14T11:33:01.954Z,97436.81
2023-02-14T11:35:07.508Z,97426.91
2023-02-14T11:37:27.932Z,97431.66
2023-02-14T11:39:32.738Z,97424.50
2023-02-14T11:41:50.057Z,97418.91
2023-02-14T11:43:53.175Z,97422.75
2023-02-14T11:46:08.906Z,97418.34
2023-02-14T11:48:36.528Z,97410.16
2023-02-14T11:50:42.565Z,97401.41
2023-02-14T11:52:52.118Z,97419.75
2023-02-14T11:54:55.823Z,97250.06
2023-02-14T11:57:05.169Z,97415.09
2023-02-14T11:59:08.036Z,97404.38
2023-02-14T12:01:21.208Z,97398.19
2023-02-14T12:03:24.139Z,97393.78
2023-02-14T12:05:31.406Z,97348.59
2023-02-14T12:07:37.567Z,97375.78
2023-02-14T12:09:42.651Z,97391.78
2023-02-14T12:11:55.572Z,97400.28
2023-02-14T12:13:59.532Z,97389.88
2023-02-14T12:16:03.767Z,97384.44
2023-02-14T12:18:48.212Z,97390.91
2023-02-14T12:20:56.104Z,97384.06
2023-02-14T12:23:05.522Z,97379.50
2023-02-14T12:25:16.518Z,97380.53
2023-02-14T12:27:23.228Z,97336.84
2023-02-14T12:29:31.453Z,97373.91
2023-02-14T12:31:34.312Z,97366.84
2023-02-14T12:33:37.146Z,97351.94
2023-02-14T12:35:53.005Z,97356.44
2023-02-14T12:38:07.439Z,97365.50
2023-02-14T12:40:18.194Z,97366.59
2023-02-14T12:42:34.352Z,97362.47
2023-02-14T12:44:47.433Z,97361.19
2023-02-14T12:47:14.488Z,97355.41
2023-02-14T12:49:52.440Z,97344.50
2023-02-14T12:52:04.728Z,97353.81
2023-02-14T12:54:24.233Z,97350.28
2023-02-14T12:56:37.461Z,97346.78
2023-02-14T12:58:51.086Z,97340.28
2023-02-14T13:01:06.255Z,97353.50
2023-02-14T13:03:30.421Z,97328.78
2023-02-14T13:05:46.595Z,97331.34
2023-02-14T13:08:09.344Z,97264.31
2023-02-14T13:10:19.668Z,97278.25
2023-02-14T13:12:36.117Z,97328.16
2023-02-14T13:14:57.982Z,97327.19
2023-02-14T13:17:08.789Z,97329.00
2023-02-14T13:19:25.604Z,97323.38
2023-02-14T13:21:32.402Z,97317.34
2023-02-14T13:23:40.458Z,97313.09
2023-02-14T13:25:49.891Z,97319.28
2023-02-14T13:27:52.945Z,97314.66
2023-02-14T13:30:01.100Z,97313.50
2023-02-14T13:32:04.915Z,97311.66
2023-02-14T13:34:14.553Z,97315.66
2023-02-14T13:36:18.029Z,97143.94
2023-02-14T13:38:21.597Z,97299.53
2023-02-14T13:40:28.679Z,97294.47
2023-02-14T13:42:54.111Z,97290.41
2023-02-14T13:44:56.814Z,97281.19
2023-02-14T13:46:59.581Z,97275.28
2023-02-14T13:49:07.477Z,97220.19
2023-02-14T13:51:11.237Z,97298.69
2023-02-14T13:53:14.781Z,97230.81
2023-02-14T13:55:20.259Z,97269.44
2023-02-14T13:57:34.214Z,97290.81
2023-02-14T13:59:37.088Z,97226.66
2023-02-14T14:01:42.171Z,97292.50
2023-02-14T14:03:57.593Z,97286.03
2023-02-14T14:06:07.293Z,97273.56
2023-02-14T14:08:53.098Z,97289.00
2023-02-14T14:10:57.754Z,97285.56
2023-02-14T14:13:01.858Z,97277.97
2023-02-14T14:15:25.801Z,97252.78
2023-02-14T14:17:28.704Z,97278.47
2023-02-14T14:19:40.009Z,97275.56
2023-02-14T14:21:44.740Z,97183.28
2023-02-14T14:24:18.863Z,97266.72
2023-02-14T14:26:46.847Z,97273.06
2023-02-14T14:28:51.025Z,97273.97
2023-02-14T14:30:53.991Z,97277.00
2023-02-14T14:32:56.828Z,97278.88
2023-02-14T14:35:01.178Z,97273.44
2023-02-14T14:37:06.017Z,97269.91
2023-02-14T14:39:11.279Z,97270.94
2023-02-14T14:41:14.053Z,97233.97
2023-02-14T14:43:23.587Z,97262.16
2023-02-14T14:45:30.393Z,97260.03
2023-02-14T14:47:43.533Z,97258.94
2023-02-14T14:49:46.637Z,97261.13
2023-02-14T14:51:50.060Z,97232.84
2023-02-14T14:53:55.610Z,97266.56
2023-02-14T14:55:59.297Z,97263.53
2023-02-14T14:58:04.300Z,97256.78
2023-02-14T15:00:27.275Z,97265.72
2023-02-14T15:02:32.061Z,97259.19
2023-02-14T15:04:36.746Z,97254.53
2023-02-14T15:06:40.914Z,97258.09
2023-02-14T15:08:44.393Z,97226.28
2023-02-14T15:10:52.492Z,97229.47
2023-02-14T15:13:15.752Z,97257.97
2023-02-14T15:15:19.603Z,97221.72
2023-02-14T15:17:26.091Z,97251.28
2023-02-14T15:19:34.844Z,97245.88
2023-02-14T15:21:38.048Z,97255.66
2023-02-14T15:23:44.060Z,97256.22
2023-02-14T15:25:49.123Z,97262.03
2023-02-14T15:27:52.361Z,97211.50
2023-02-14T15:29:57.954Z,97262.84
2023-02-14T15:32:03.440Z,97240.97
2023-02-14T15:34:07.638Z,97259.00
2023-02-14T15:36:18.978Z,97248.16
2023-02-14T15:38:23.921Z,97243.84
2023-02-14T15:40:31.118Z,97258.78
2023-02-14T15:42:35.978Z,97260.84
2023-02-14T15:44:38.731Z,97258.06
2023-02-14T15:46:41.862Z,97242.38
2023-02-14T15:48:47.052Z,97262.59
2023-02-14T15:50:52.591Z,97260.97
2023-02-14T15:53:00.482Z,97258.50
2023-02-14T15:55:03.260Z,97248.91
2023-02-14T15:57:08.757Z,97261.03
2023-02-14T15:59:18.721Z,97248.72
2023-02-14T16:01:22.263Z,97258.34
2023-02-14T16:03:27.964Z,97268.22
2023-02-14T16:05:30.779Z,97259.78
2023-02-14T16:07:33.972Z,97267.06
2023-02-14T16:09:38.094Z,97259.19
2023-02-14T16:11:40.809Z,97251.47
2023-02-14T16:13:45.640Z,97253.25
2023-02-14T16:15:58.932Z,97249.88
2023-02-14T16:18:06.937Z,97253.19
2023-02-14T16:20:21.978Z,97263.75
2023-02-14T16:22:31.881Z,97254.53
2023-02-14T16:24:35.956Z,97252.38
2023-02-14T16:26:41.903Z,97261.41
2023-02-14T16:28:44.714Z,97229.41
2023-02-14T16:30:53.958Z,97256.75
2023-02-14T16:32:57.199Z,97254.88
2023-02-14T16:35:01.572Z,97247.63
2023-02-14T16:37:07.850Z,97211.75
2023-02-14T16:39:16.591Z,97238.88
2023-02-14T16:41:21.321Z,97255.97
2023-02-14T16:43:25.476Z,97256.53
2023-02-14T16:45:28.198Z,97266.09
2023-02-14T16:47:31.018Z,97262.41
2023-02-14T16:49:33.756Z,97269.47
2023-02-14T16:51:37.776Z,97178.03
2023-02-14T16:53:42.267Z,97261.69
2023-02-14T16:55:45.121Z,97272.44
2023-02-14T16:57:51.746Z,97235.75
2023-02-14T16:59:56.926Z,97278.84
2023-02-14T17:01:59.951Z,97275.34
2023-02-14T17:04:02.814Z,97281.94
2023-02-14T17:06:06.364Z,97278.41
2023-02-14T17:08:11.831Z,97276.09
2023-02-14T17:10:19.070Z,97276.09
2023-02-14T17:12:26.582Z,97273.97
2023-02-14T17:14:34.243Z,97242.38
2023-02-14T17:16:39.397Z,97282.75
2023-02-14T17:18:43.459Z,97272.22
2023-02-14T17:20:46.471Z,97289.97
2023-02-14T17:22:49.306Z,97292.63
2023-02-14T17:24:52.107Z,97286.53
2023-02-14T17:26:54.880Z,97293.97
2023-02-14T17:28:57.642Z,97290.78
2023-02-14T17:31:01.050Z,97272.81
2023-02-14T17:33:05.538Z,97291.81
2023-02-14T17:35:08.989Z,97284.19
2023-02-14T17:37:11.777Z,97300.16
2023-02-14T17:39:14.788Z,97291.97
2023-02-14T17:41:20.339Z,97295.28
2023-02-14T17:43:24.065Z,97292.94
2023-02-14T17:45:26.816Z,97307.56
2023-02-14T17:47:30.289Z,97295.97
2023-02-14T17:49:34.469Z,97299.88
2023-02-14T17:51:37.301Z,97211.56
2023-02-14T17:53:41.509Z,97309.41
2023-02-14T17:55:44.270Z,97305.03
2023-02-14T17:57:47.077Z,97299.19
2023-02-14T17:59:51.153Z,97277.56
2023-02-14T18:01:54.001Z,97292.16
2023-02-14T18:03:56.790Z,97284.09
2023-02-14T18:06:01.792Z,97281.88
2023-02-14T18:08:04.736Z,97267.34
2023-02-14T18:10:08.638Z,97284.84
2023-02-14T18:12:14.911Z,97291.84
2023-02-14T18:14:18.028Z,97285.94
2023-02-14T18:16:21.048Z,97288.16
2023-02-14T18:18:23.829Z,97294.06
2023-02-14T18:20:26.552Z,97285.63
2023-02-14T18:22:30.644Z,97281.00
2023-02-14T18:24:33.522Z,97283.16
2023-02-14T18:26:37.709Z,97286.34
2023-02-14T18:28:40.863Z,97213.16
2023-02-14T18:30:43.618Z,97243.66
2023-02-14T18:32:46.390Z,97268.19
2023-02-14T18:34:49.172Z,97261.38
2023-02-14T18:36:51.899Z,97259.19
2023-02-14T18:38:56.304Z,97267.00
2023-02-14T18:41:03.227Z,97257.16
2023-02-14T18:43:06.098Z,97262.63
2023-02-14T18:45:10.212Z,97270.16
2023-02-14T18:47:12.905Z,97257.56
2023-02-14T18:49:15.702Z,97259.59
2023-02-14T18:51:21.373Z,97262.72
2023-02-14T18:53:24.784Z,97264.75
2023-02-14T18:55:28.849Z,97185.38
2023-02-14T18:57:31.597Z,97251.59
2023-02-14T18:59:34.322Z,97259.59
2023-02-14T19:01:40.652Z,97259.78
2023-02-14T19:03:44.030Z,97266.81
2023-02-14T19:05:46.746Z,97262.91
2023-02-14T19:07:54.312Z,97241.84
2023-02-14T19:09:57.022Z,97251.22
2023-02-14T19:12:01.151Z,97243.84
2023-02-14T19:14:09.818Z,97252.19
2023-02-14T19:16:14.148Z,97193.66
2023-02-14T19:18:16.954Z,97248.19
2023-02-14T19:20:20.033Z,97146.63
2023-02-14T19:22:23.387Z,97213.56
2023-02-14T19:24:26.562Z,97201.75
2023-02-14T19:26:32.742Z,97242.72
2023-02-14T19:28:36.899Z,97244.59
2023-02-14T19:30:39.875Z,97245.81
2023-02-14T19:32:42.684Z,97244.78
2023-02-14T19:34:45.513Z,97235.97
2023-02-14T19:36:49.038Z,97203.28
2023-02-14T19:38:54.170Z,97170.03
2023-02-14T19:40:57.968Z,97243.16
2023-02-14T19:43:00.818Z,97169.66
2023-02-14T19:45:05.653Z,97197.94
2023-02-14T19:47:25.321Z,97239.66
2023-02-14T19:49:31.947Z,97217.34
2023-02-14T19:51:36.943Z,97249.13
2023-02-14T19:53:39.703Z,97119.66
2023-02-14T19:55:42.598Z,97230.38
2023-02-14T19:57:45.398Z,97244.44
2023-02-14T19:59:48.253Z,97247.53
2023-02-14T20:01:54.296Z,97240.53
2023-02-14T20:03:57.528Z,97253.03
2023-02-14T20:06:00.314Z,97250.34
2023-02-14T20:08:03.076Z,97253.94
2023-02-14T20:10:07.121Z,97255.59
2023-02-14T20:12:10.937Z,97246.97
2023-02-14T20:14:17.476Z,97239.16
2023-02-14T20:16:20.257Z,97240.56
2023-02-14T20:18:24.433Z,97240.06
2023-02-14T20:20:27.243Z,97207.19
2023-02-14T20:22:30.608Z,97212.72
2023-02-14T20:24:33.542Z,97206.84
2023-02-14T20:26:39.228Z,97232.13
2023-02-14T20:28:43.234Z,97230.56
2023-02-14T20:30:46.090Z,97230.38
2023-02-14T20:32:48.915Z,97216.22
2023-02-14T20:34:53.142Z,97220.00
2023-02-14T20:36:56.238Z,97225.69
2023-02-14T20:39:01.412Z,97217.97
2023-02-14T20:41:05.255Z,97141.38
2023-02-14T20:43:08.066Z,97221.47
2023-02-14T20:45:10.838Z,97222.66
2023-02-14T20:47:14.085Z,97211.50
2023-02-14T20:49:17.210Z,97218.13
2023-02-14T20:51:22.324Z,97214.19
2023-02-14T20:53:25.858Z,97221.50
2023-02-14T20:55:31.065Z,97204.72
2023-02-14T20:57:33.857Z,97213.06
2023-02-14T20:59:37.615Z,97206.63
2023-02-14T21:01:40.777Z,97140.47
2023-02-14T21:03:46.648Z,97198.81
2023-02-14T21:05:49.512Z,97171.47
2023-02-14T21:07:53.740Z,97139.88
2023-02-14T21:09:56.669Z,97045.19
2023-02-14T21:11:59.442Z,97195.44
2023-02-14T21:14:03.003Z,97195.88
2023-02-14T21:16:07.760Z,97203.50
2023-02-14T21:18:10.563Z,97089.91
2023-02-14T21:20:15.024Z,97187.78
2023-02-14T21:22:18.089Z,97193.16
2023-02-14T21:24:22.253Z,97188.19
2023-02-14T21:26:25.545Z,97185.25
2023-02-14T21:28:28.879Z,97070.78
2023-02-14T21:30:32.768Z,97179.56
2023-02-14T21:32:35.565Z,97174.59
2023-02-14T21:34:38.373Z,97166.28
2023-02-14T21:36:41.101Z,97167.28
2023-02-14T21:38:44.204Z,97168.59
2023-02-14T21:40:48.322Z,97175.38
2023-02-14T21:42:51.128Z,97175.56
2023-02-14T21:45:11.339Z,97160.97
2023-02-14T21:47:14.190Z,97141.34
2023-02-14T21:49:34.373Z,97163.75
2023-02-14T21:51:37.139Z,97135.31
2023-02-14T21:53:39.951Z,97154.53
2023-02-14T21:55:45.508Z,97140.94
2023-02-14T21:57:49.635Z,97148.84
2023-02-14T21:59:52.394Z,97142.53
2023-02-14T22:01:55.429Z,97142.28
2023-02-14T22:03:59.816Z,97138.56
2023-02-14T22:06:03.476Z,97102.94
2023-02-14T22:08:06.946Z,97155.22
2023-02-14T22:10:10.389Z,97133.66
2023-02-14T22:12:13.157Z,97156.88
2023-02-14T22:14:17.420Z,97153.78
2023-02-14T22:16:22.014Z,97059.06
2023-02-14T22:18:24.819Z,97160.03
2023-02-14T22:20:27.584Z,97153.22
2023-02-14T22:22:30.299Z,97159.19
2023-02-14T22:24:33.125Z,97155.72
2023-02-14T22:26:38.778Z,97153.19
2023-02-14T22:28:43.365Z,97153.66
2023-02-14T22:30:47.512Z,97122.84
2023-02-14T22:32:50.350Z,97113.88
2023-02-14T22:34:54.888Z,97144.47
2023-02-14T22:36:57.671Z,97136.69
2023-02-14T22:39:00.618Z,97137.50
2023-02-14T22:41:07.633Z,97139.50
2023-02-14T22:43:10.487Z,97137.03
2023-02-14T22:45:13.240Z,97134.41
2023-02-14T22:47:17.712Z,97136.44
2023-02-14T22:49:20.444Z,97038.84
2023-02-14T22:51:25.236Z,97108.75
2023-02-14T22:53:28.071Z,97140.53
2023-02-14T22:55:31.082Z,97138.38
2023-02-14T22:57:33.867Z,97071.19
2023-02-14T22:59:36.646Z,97137.00
2023-02-14T23:01:39.539Z,97149.47
2023-02-14T23:03:44.098Z,97076.72
2023-02-14T23:05:46.968Z,97074.03
2023-02-14T23:07:49.807Z,97122.06
2023-02-14T23:09:52.568Z,97115.25
2023-02-14T23:11:55.483Z,97122.91
2023-02-14T23:14:15.959Z,97118.56
2023-02-14T23:16:36.389Z,97072.41
2023-02-14T23:18:56.443Z,97115.47
2023-02-14T23:21:18.140Z,97119.13
2023-02-14T23:23:20.880Z,97030.47
2023-02-14T23:25:23.589Z,97110.34
2023-02-14T23:27:31.745Z,97099.69
2023-02-14T23:29:35.092Z,97109.66
2023-02-14T23:31:37.899Z,97108.78
2023-02-14T23:33:40.664Z,97110.41
2023-02-14T23:35:43.371Z,97087.06
2023-02-14T23:37:47.500Z,97118.38
2023-02-14T23:39:50.738Z,97108.78
2023-02-14T23:41:52.923Z,97067.28
2023-02-14T23:43:55.613Z,97096.72
2023-02-14T23:46:01.187Z,97104.78
2023-02-14T23:48:05.080Z,97072.31
2023-02-14T23:50:08.746Z,97101.13
2023-02-14T23:52:13.278Z,97104.78
2023-02-14T23:54:17.995Z,97066.75
2023-02-14T23:56:20.747Z,97093.66
2023-02-14T23:58:23.410Z,97105.09
